Time;durP1;ratioP1;P1;durP2;ratioP2;P2;SDS_P1;SDS_P2;PMS_P1;PMS_P2;Temp;Humidity;BMP_temperature;BMP_pressure;BME280_temperature;BME280_humidity;BME280_pressure;Samples;Min_cycle;Max_cycle;Signal;HPM_P1;HPM_P2
2022/10/11 00:02:11;;;;;;;11.70;2.17;;;8.60;99.90;;;;;;4955879;28;98519;-73
2022/10/11 00:04:38;;;;;;;10.85;2.30;;;8.60;99.90;;;;;;4954852;28;97879;-73
2022/10/11 00:07:04;;;;;;;13.20;1.98;;;8.50;99.90;;;;;;4953863;28;102085;-73
2022/10/11 00:09:31;;;;;;;7.82;2.33;;;8.60;99.90;;;;;;4954163;28;101640;-73
2022/10/11 00:11:59;;;;;;;11.73;2.30;;;8.50;99.90;;;;;;4954344;28;99278;-73
2022/10/11 00:14:26;;;;;;;8.10;1.95;;;8.50;99.90;;;;;;4953742;28;104872;-73
2022/10/11 00:16:54;;;;;;;6.18;1.80;;;8.50;99.90;;;;;;4955255;28;99415;-73
2022/10/11 00:19:21;;;;;;;16.80;2.67;;;8.40;99.90;;;;;;4953689;28;100338;-73
2022/10/11 00:21:48;;;;;;;11.07;2.30;;;8.40;99.90;;;;;;4955549;28;98473;-73
2022/10/11 00:24:15;;;;;;;10.30;2.60;;;8.40;99.90;;;;;;4955551;28;98950;-73
2022/10/11 00:26:43;;;;;;;11.50;2.50;;;8.30;99.90;;;;;;4955268;28;99387;-74
2022/10/11 00:29:13;;;;;;;11.98;2.05;;;8.30;99.90;;;;;;4986446;28;99090;-73
2022/10/11 00:31:39;;;;;;;5.50;1.90;;;8.30;99.90;;;;;;4955288;28;98521;-73
2022/10/11 00:34:07;;;;;;;13.02;2.15;;;8.30;99.90;;;;;;4970079;28;98700;-73
2022/10/11 00:36:34;;;;;;;17.38;2.63;;;8.20;99.90;;;;;;4954239;28;99940;-73
2022/10/11 00:39:01;;;;;;;8.95;2.80;;;8.20;99.90;;;;;;4955101;28;99683;-73
2022/10/11 00:41:28;;;;;;;11.00;3.05;;;8.20;99.90;;;;;;4955261;28;98469;-73
2022/10/11 00:44:28;;;;;;;11.20;2.45;;;8.20;99.90;;;;;;4955536;28;99197;-73
2022/10/11 00:47:03;;;;;;;11.88;2.42;;;8.30;99.90;;;;;;4942132;28;99251;-73
2022/10/11 00:49:42;;;;;;;11.63;2.10;;;8.20;99.90;;;;;;4986285;28;101756;-73
2022/10/11 00:52:33;;;;;;;12.88;2.25;;;8.20;99.90;;;;;;4955385;28;98781;-73
2022/10/11 00:55:28;;;;;;;10.00;2.15;;;8.20;99.90;;;;;;4955522;28;97931;-73
2022/10/11 00:57:57;;;;;;;10.70;2.10;;;8.20;99.90;;;;;;4952674;28;102209;-73
2022/10/11 01:00:24;;;;;;;7.50;2.20;;;8.10;99.90;;;;;;4985484;28;98731;-73
2022/10/11 01:02:51;;;;;;;8.75;2.08;;;8.10;99.90;;;;;;4953351;28;99336;-73
2022/10/11 01:05:18;;;;;;;11.35;2.25;;;8.10;99.90;;;;;;4954912;28;98525;-73
2022/10/11 01:07:59;;;;;;;16.63;2.40;;;8.10;99.90;;;;;;4953474;28;101803;-73
2022/10/11 01:10:27;;;;;;;8.55;2.55;;;8.00;99.90;;;;;;4953273;28;99162;-73
2022/10/11 01:13:21;;;;;;;9.68;2.35;;;8.00;99.90;;;;;;4986215;28;98595;-73
2022/10/11 01:16:09;;;;;;;12.90;2.45;;;8.00;99.90;;;;;;4953541;28;98683;-74
2022/10/11 01:19:24;;;;;;;10.32;2.33;;;8.00;99.90;;;;;;4953183;28;102297;-73
2022/10/11 01:22:15;;;;;;;11.93;2.47;;;8.00;99.90;;;;;;4935743;28;101754;-73
2022/10/11 01:25:04;;;;;;;11.48;2.30;;;8.00;99.90;;;;;;4932829;28;98645;-73
2022/10/11 01:27:54;;;;;;;14.27;2.25;;;8.00;99.90;;;;;;4954125;28;98621;-74
2022/10/11 01:30:22;;;;;;;7.68;2.30;;;8.00;99.90;;;;;;4953707;28;99370;-73
2022/10/11 01:33:15;;;;;;;7.80;2.05;;;8.00;99.90;;;;;;4952888;28;99844;-73
2022/10/11 01:36:00;;;;;;;11.48;2.25;;;8.00;99.90;;;;;;4945228;28;98715;-73
2022/10/11 01:38:32;;;;;;;10.90;2.70;;;7.90;99.90;;;;;;4953089;28;98665;-73
2022/10/11 01:41:08;;;;;;;13.38;2.70;;;7.90;99.90;;;;;;4954171;28;100127;-73
2022/10/11 01:43:36;;;;;;;7.47;2.40;;;7.90;99.90;;;;;;4954044;28;99015;-73
2022/10/11 01:46:06;;;;;;;9.10;2.25;;;7.80;99.90;;;;;;4954483;28;98560;-73
2022/10/11 01:48:53;;;;;;;10.98;2.78;;;7.80;99.90;;;;;;4985223;28;97886;-74
2022/10/11 01:51:23;;;;;;;6.63;2.67;;;7.80;99.90;;;;;;4952139;28;101926;-73
2022/10/11 01:54:11;;;;;;;10.98;2.08;;;7.80;99.90;;;;;;4953789;28;99015;-73
2022/10/11 01:57:19;;;;;;;11.05;2.55;;;7.80;99.90;;;;;;4952331;28;99758;-73
2022/10/11 02:00:07;;;;;;;11.13;2.70;;;7.80;99.90;;;;;;4954150;28;98512;-73
2022/10/11 02:02:55;;;;;;;12.27;2.65;;;7.80;99.90;;;;;;4952452;28;99290;-73
2022/10/11 02:05:49;;;;;;;11.00;2.72;;;7.70;99.90;;;;;;4953836;28;99059;-73
2022/10/11 02:08:35;;;;;;;8.90;2.10;;;7.70;99.90;;;;;;4952414;28;98596;-73
2022/10/11 02:11:25;;;;;;;5.90;1.92;;;7.70;99.90;;;;;;4954314;28;98427;-73
2022/10/11 02:14:07;;;;;;;10.02;2.28;;;7.70;99.90;;;;;;4952520;28;99461;-73
2022/10/11 02:16:52;;;;;;;11.82;2.40;;;7.70;99.90;;;;;;4953745;28;99193;-73
2022/10/11 02:19:25;;;;;;;7.90;2.10;;;7.70;99.90;;;;;;4952482;28;98553;-74
2022/10/11 02:21:56;;;;;;;9.52;2.20;;;7.60;99.90;;;;;;4985597;28;98794;-73
2022/10/11 02:24:29;;;;;;;10.80;2.00;;;7.60;99.90;;;;;;4984526;28;100278;-74
2022/10/11 02:26:58;;;;;;;10.77;2.40;;;7.70;99.90;;;;;;4953451;28;99870;-73
2022/10/11 02:29:28;;;;;;;10.75;2.00;;;7.70;99.90;;;;;;4953470;28;98464;-74
2022/10/11 02:31:58;;;;;;;9.68;2.05;;;7.70;99.90;;;;;;4953303;28;98539;-73
2022/10/11 02:34:35;;;;;;;10.80;2.17;;;7.70;99.90;;;;;;4953027;28;99417;-73
2022/10/11 02:37:09;;;;;;;12.52;2.60;;;7.70;99.90;;;;;;4951909;28;101737;-73
2022/10/11 02:39:40;;;;;;;;;;;7.70;99.90;;;;;;4954111;28;98542;-73
2022/10/11 02:42:16;;;;;;;12.93;2.33;;;7.60;99.90;;;;;;4955420;28;98343;-73
2022/10/11 02:44:49;;;;;;;7.93;1.85;;;7.60;99.90;;;;;;4953202;28;99282;-73
2022/10/11 02:47:16;;;;;;;7.43;2.47;;;7.60;99.90;;;;;;4984831;28;98985;-73
2022/10/11 02:49:43;;;;;;;10.05;2.65;;;7.60;99.90;;;;;;4951739;28;99251;-73
2022/10/11 02:52:10;;;;;;;7.13;2.25;;;7.60;99.90;;;;;;4952151;28;99189;-73
2022/10/11 02:54:37;;;;;;;11.88;2.30;;;7.50;99.90;;;;;;4951499;28;101860;-74
2022/10/11 02:57:04;;;;;;;8.90;2.42;;;7.60;99.90;;;;;;4952909;28;99512;-73
2022/10/11 02:59:30;;;;;;;5.30;1.88;;;7.60;99.90;;;;;;4953045;28;98517;-73
2022/10/11 03:01:57;;;;;;;10.88;1.83;;;7.60;99.90;;;;;;4951820;28;98634;-73
2022/10/11 03:04:24;;;;;;;6.88;2.25;;;7.60;99.90;;;;;;4951330;28;99578;-73
2022/10/11 03:06:51;;;;;;;12.27;2.10;;;7.60;99.90;;;;;;4951919;28;101709;-73
2022/10/11 03:09:18;;;;;;;11.65;2.05;;;7.60;99.90;;;;;;4985089;28;98465;-73
2022/10/11 03:11:45;;;;;;;8.07;2.05;;;7.60;99.90;;;;;;4984454;28;98812;-73
2022/10/11 03:14:12;;;;;;;11.90;2.20;;;7.60;99.90;;;;;;4967560;28;100032;-73
2022/10/11 03:16:39;;;;;;;9.20;2.28;;;7.60;99.90;;;;;;4952542;28;99870;-73
2022/10/11 03:19:06;;;;;;;11.05;2.15;;;7.60;99.90;;;;;;4951678;28;98437;-73
2022/10/11 03:21:33;;;;;;;7.28;1.98;;;7.60;99.90;;;;;;4951768;28;98510;-73
2022/10/11 03:24:00;;;;;;;9.30;2.20;;;7.60;99.90;;;;;;4952949;28;99278;-73
2022/10/11 03:26:27;;;;;;;17.75;2.00;;;7.60;99.90;;;;;;4952562;28;98963;-73
2022/10/11 03:28:54;;;;;;;6.35;2.15;;;7.50;99.90;;;;;;4953209;28;98547;-73
2022/10/11 03:31:22;;;;;;;9.02;2.28;;;7.50;99.90;;;;;;4935016;28;98404;-73
2022/10/11 03:33:49;;;;;;;6.90;2.50;;;7.50;99.90;;;;;;4952126;28;99273;-73
2022/10/11 03:36:16;;;;;;;6.60;1.73;;;7.50;99.90;;;;;;4951022;28;101552;-73
2022/10/11 03:38:43;;;;;;;8.20;2.13;;;7.50;99.90;;;;;;4983898;28;99376;-73
2022/10/11 03:41:10;;;;;;;10.50;2.33;;;7.50;99.90;;;;;;4951882;28;98984;-73
2022/10/11 03:43:37;;;;;;;8.80;2.08;;;7.50;99.90;;;;;;4952209;28;99253;-73
2022/10/11 03:46:04;;;;;;;10.52;2.17;;;7.50;99.90;;;;;;4983844;28;98970;-73
2022/10/11 03:48:32;;;;;;;10.88;2.15;;;7.50;99.90;;;;;;4951360;28;98576;-73
2022/10/11 03:50:59;;;;;;;7.63;1.88;;;7.50;99.90;;;;;;4951374;28;98598;-73
2022/10/11 03:53:26;;;;;;;9.57;1.70;;;7.50;99.90;;;;;;4951830;28;114856;-73
2022/10/11 03:55:55;;;;;;;10.68;2.40;;;7.50;99.90;;;;;;4952284;28;103170;-73
2022/10/11 03:58:22;;;;;;;7.28;1.77;;;7.50;99.90;;;;;;4952665;28;98693;-73
2022/10/11 04:00:51;;;;;;;9.07;2.00;;;7.50;99.90;;;;;;4952300;28;98494;-73
2022/10/11 04:03:18;;;;;;;12.40;2.08;;;7.50;99.90;;;;;;4950466;28;102565;-73
2022/10/11 04:05:45;;;;;;;9.73;2.53;;;7.50;99.90;;;;;;4950680;28;100912;-73
2022/10/11 04:08:12;;;;;;;7.82;1.80;;;7.50;99.90;;;;;;4952661;28;98510;-73
2022/10/11 04:10:39;;;;;;;7.45;2.10;;;7.50;99.90;;;;;;4952203;28;99307;-73
2022/10/11 04:13:06;;;;;;;10.88;1.98;;;7.50;99.90;;;;;;4986625;28;99416;-73
2022/10/11 04:15:33;;;;;;;9.40;1.95;;;7.40;99.90;;;;;;4970390;28;99149;-73
2022/10/11 04:18:00;;;;;;;9.80;2.28;;;7.40;99.90;;;;;;4987392;28;98443;-73
2022/10/11 04:20:27;;;;;;;13.52;2.63;;;7.40;99.90;;;;;;4955162;28;98286;-73
2022/10/11 04:22:54;;;;;;;9.23;2.10;;;7.40;99.90;;;;;;4953772;28;101948;-73
2022/10/11 04:25:21;;;;;;;7.03;1.88;;;7.40;99.90;;;;;;4955440;28;98864;-73
2022/10/11 04:27:48;;;;;;;13.27;2.15;;;7.40;99.90;;;;;;4954379;28;99885;-73
2022/10/11 04:30:15;;;;;;;9.27;1.98;;;7.40;99.90;;;;;;4953989;28;98579;-74
2022/10/11 04:32:42;;;;;;;6.50;1.60;;;7.30;99.90;;;;;;4986792;28;99357;-73
2022/10/11 04:35:10;;;;;;;6.40;1.88;;;7.30;99.90;;;;;;4954071;28;98929;-73
2022/10/11 04:37:37;;;;;;;10.13;2.40;;;7.30;99.90;;;;;;4955381;28;98489;-74
2022/10/11 04:40:06;;;;;;;8.43;1.95;;;7.30;99.90;;;;;;4955557;28;98517;-74
2022/10/11 04:42:34;;;;;;;8.48;2.63;;;7.30;99.90;;;;;;4954938;28;99352;-73
2022/10/11 04:45:01;;;;;;;9.75;2.20;;;7.20;99.90;;;;;;4955419;28;100245;-73
2022/10/11 04:47:27;;;;;;;4.18;1.70;;;7.20;99.90;;;;;;4986798;28;98491;-73
2022/10/11 04:49:54;;;;;;;6.55;2.40;;;7.20;99.90;;;;;;4986576;28;98595;-73
2022/10/11 04:52:21;;;;;;;11.25;2.53;;;7.10;99.90;;;;;;4952968;28;102712;-73
2022/10/11 04:54:51;;;;;;;10.15;1.92;;;7.10;99.90;;;;;;4953107;28;101185;-73
2022/10/11 04:57:18;;;;;;;12.70;2.45;;;7.10;99.90;;;;;;4953819;28;98566;-73
2022/10/11 04:59:45;;;;;;;7.03;2.17;;;7.10;99.90;;;;;;4953529;28;98531;-73
2022/10/11 05:02:15;;;;;;;9.43;2.03;;;7.10;99.90;;;;;;4955081;28;99513;-73
2022/10/11 05:04:42;;;;;;;8.23;2.40;;;7.00;99.90;;;;;;4952587;28;118491;-73
2022/10/11 05:07:09;;;;;;;10.00;2.42;;;7.10;99.90;;;;;;4970116;28;98487;-73
2022/10/11 05:09:36;;;;;;;7.68;2.40;;;7.00;99.90;;;;;;4953641;28;97824;-73
2022/10/11 05:12:03;;;;;;;8.00;1.95;;;7.00;99.90;;;;;;4953137;28;100604;-73
2022/10/11 05:14:30;;;;;;;8.05;2.47;;;7.10;99.90;;;;;;4954670;28;98927;-73
2022/10/11 05:16:57;;;;;;;6.28;1.85;;;7.00;99.90;;;;;;4952867;28;99227;-73
2022/10/11 05:19:24;;;;;;;10.15;2.35;;;7.00;99.90;;;;;;4954842;28;98386;-73
2022/10/11 05:21:51;;;;;;;7.28;2.60;;;7.00;99.90;;;;;;4954401;28;99183;-73
2022/10/11 05:24:18;;;;;;;8.25;2.42;;;7.00;99.90;;;;;;4951728;28;99008;-73
2022/10/11 05:26:45;;;;;;;10.23;2.25;;;7.00;99.90;;;;;;4986157;28;98645;-73
2022/10/11 05:29:12;;;;;;;6.72;2.17;;;7.00;99.90;;;;;;4954762;28;98517;-73
2022/10/11 05:31:39;;;;;;;11.18;2.33;;;7.00;99.90;;;;;;4968702;28;102168;-73
2022/10/11 05:34:06;;;;;;;7.32;2.45;;;7.00;99.90;;;;;;4969034;28;103852;-73
2022/10/11 05:36:33;;;;;;;10.35;2.22;;;7.00;99.90;;;;;;4969564;28;98539;-73
2022/10/11 05:39:00;;;;;;;10.00;2.83;;;7.00;99.90;;;;;;4954260;28;98489;-73
2022/10/11 05:41:28;;;;;;;8.93;2.13;;;7.00;99.90;;;;;;4952584;28;100041;-73
2022/10/11 05:43:55;;;;;;;9.07;2.55;;;7.00;99.90;;;;;;4953521;28;99699;-73
2022/10/11 05:46:21;;;;;;;8.82;2.28;;;7.00;99.90;;;;;;4954621;28;98509;-73
2022/10/11 05:48:48;;;;;;;8.90;2.50;;;7.00;99.90;;;;;;4952652;28;98693;-73
2022/10/11 05:51:15;;;;;;;6.05;2.30;;;7.00;99.90;;;;;;4952199;28;101882;-73
2022/10/11 05:53:42;;;;;;;13.57;2.65;;;7.00;99.90;;;;;;4985303;28;98959;-73
2022/10/11 05:56:23;;;;;;;9.27;2.17;;;7.00;99.90;;;;;;4952722;28;98540;-73
2022/10/11 05:58:51;;;;;;;5.65;2.63;;;7.10;99.90;;;;;;4952985;28;97936;-73
2022/10/11 06:01:21;;;;;;;11.60;2.70;;;7.00;99.90;;;;;;4953662;28;99231;-73
2022/10/11 06:03:48;;;;;;;8.60;2.60;;;7.00;99.90;;;;;;4953469;28;99011;-73
2022/10/11 06:06:15;;;;;;;9.60;2.60;;;7.10;99.90;;;;;;4985121;28;100042;-73
2022/10/11 06:08:43;;;;;;;7.60;2.30;;;7.10;99.90;;;;;;4954219;28;98954;-73
2022/10/11 06:11:13;;;;;;;6.15;2.22;;;7.10;99.90;;;;;;4953411;28;99335;-73
2022/10/11 06:13:43;;;;;;;13.18;2.22;;;7.10;99.90;;;;;;4953876;28;98854;-73
2022/10/11 06:16:10;;;;;;;7.30;2.13;;;7.10;99.90;;;;;;4952592;28;98558;-73
2022/10/11 06:18:38;;;;;;;11.43;2.50;;;7.20;99.90;;;;;;4953826;28;98967;-73
2022/10/11 06:21:05;;;;;;;12.32;2.60;;;7.20;99.90;;;;;;4968311;28;99399;-73
2022/10/11 06:23:32;;;;;;;7.53;2.67;;;7.20;99.90;;;;;;4953940;28;98996;-73
2022/10/11 06:26:01;;;;;;;7.22;2.53;;;7.30;99.90;;;;;;4968294;28;98619;-73
2022/10/11 06:28:28;;;;;;;9.88;2.33;;;7.40;99.90;;;;;;4952473;28;98623;-73
2022/10/11 06:30:56;;;;;;;14.85;2.85;;;7.40;99.90;;;;;;4951887;28;100086;-73
2022/10/11 06:33:23;;;;;;;7.70;2.28;;;7.50;99.90;;;;;;4953488;28;100244;-73
2022/10/11 06:35:57;;;;;;;8.02;2.50;;;7.50;99.90;;;;;;4952012;28;98508;-73
2022/10/11 06:38:25;;;;;;;9.55;3.28;;;7.70;99.90;;;;;;4952739;28;98909;-73
2022/10/11 06:40:52;;;;;;;9.13;2.22;;;7.70;99.90;;;;;;4951858;28;101735;-73
2022/10/11 06:43:19;;;;;;;9.02;2.78;;;7.70;99.90;;;;;;4953159;28;99031;-73
2022/10/11 06:45:46;;;;;;;11.85;2.75;;;7.80;99.90;;;;;;4952086;28;98651;-73
2022/10/11 06:48:13;;;;;;;7.85;2.60;;;7.90;99.90;;;;;;4936297;28;98576;-73
2022/10/11 06:50:40;;;;;;;7.82;2.42;;;7.90;99.90;;;;;;4951670;28;101829;-73
2022/10/11 06:53:28;;;;;;;7.70;2.20;;;8.00;99.90;;;;;;4953336;28;98966;-73
2022/10/11 06:56:10;;;;;;;6.60;2.13;;;8.10;99.90;;;;;;4951648;28;99832;-73
2022/10/11 06:58:38;;;;;;;6.75;2.50;;;8.20;99.90;;;;;;4953433;28;98454;-73
2022/10/11 07:01:11;;;;;;;9.23;2.75;;;8.20;99.90;;;;;;4984262;28;99444;-73
2022/10/11 07:03:38;;;;;;;9.63;2.47;;;8.40;99.90;;;;;;4951950;28;99070;-73
2022/10/11 07:06:09;;;;;;;8.00;2.40;;;8.50;99.90;;;;;;4953264;28;98488;-73
2022/10/11 07:08:37;;;;;;;6.25;2.28;;;8.60;99.90;;;;;;4952131;28;98661;-73
2022/10/11 07:11:10;;;;;;;8.45;2.28;;;8.70;99.90;;;;;;4984067;28;102063;-73
2022/10/11 07:13:38;;;;;;;12.50;2.40;;;8.80;99.90;;;;;;4935674;28;101821;-73
2022/10/11 07:16:08;;;;;;;8.05;3.00;;;8.80;99.90;;;;;;4952768;28;98541;-73
2022/10/11 07:18:35;;;;;;;6.78;3.60;;;8.90;99.90;;;;;;4951715;28;98646;-73
2022/10/11 07:21:04;;;;;;;6.82;2.47;;;9.00;99.90;;;;;;4983520;28;102808;-74
2022/10/11 07:23:32;;;;;;;12.43;2.55;;;9.10;99.90;;;;;;4952533;28;99863;-73
2022/10/11 07:25:59;;;;;;;7.00;2.40;;;9.30;99.90;;;;;;4952366;28;98467;-73
2022/10/11 07:28:27;;;;;;;8.40;2.90;;;9.40;99.90;;;;;;4968180;28;98492;-73
2022/10/11 07:30:56;;;;;;;9.10;2.60;;;9.50;99.90;;;;;;4967014;28;101708;-73
2022/10/11 07:33:23;;;;;;;10.10;2.70;;;9.70;99.90;;;;;;4952286;28;99126;-73
2022/10/11 07:36:22;;;;;;;6.32;2.60;;;9.80;99.90;;;;;;4930709;28;98646;-73
2022/10/11 07:38:49;;;;;;;10.27;3.03;;;9.90;99.90;;;;;;4947208;28;97910;-73
2022/10/11 07:41:16;;;;;;;6.18;2.65;;;10.10;99.90;;;;;;4951116;28;99342;-73
2022/10/11 07:43:45;;;;;;;5.63;2.63;;;10.40;99.90;;;;;;4952425;28;99084;-73
2022/10/11 07:46:13;;;;;;;8.45;2.90;;;10.60;99.90;;;;;;4952803;28;99222;-73
2022/10/11 07:48:40;;;;;;;5.13;2.63;;;10.90;99.90;;;;;;4956289;28;98552;-73
2022/10/11 07:51:10;;;;;;;8.25;3.13;;;11.30;99.90;;;;;;4954313;28;101966;-73
2022/10/11 07:53:46;;;;;;;5.65;2.80;;;11.60;99.90;;;;;;4970628;28;101500;-73
2022/10/11 07:56:16;;;;;;;6.80;3.35;;;12.10;99.90;;;;;;4956172;28;98586;-74
2022/10/11 07:58:43;;;;;;;7.43;3.47;;;12.40;99.90;;;;;;4954420;28;98745;-73
2022/10/11 08:01:10;;;;;;;6.60;3.25;;;12.80;99.90;;;;;;4970267;28;101717;-74
2022/10/11 08:03:37;;;;;;;7.20;2.53;;;13.10;99.90;;;;;;4987521;28;99235;-73
2022/10/11 08:06:08;;;;;;;9.63;2.55;;;13.40;99.90;;;;;;4954503;28;98569;-74
2022/10/11 08:08:36;;;;;;;7.75;2.25;;;13.60;99.90;;;;;;4955989;28;98568;-74
2022/10/11 08:11:03;;;;;;;6.70;2.00;;;13.70;99.90;;;;;;4986079;28;109860;-74
2022/10/11 08:13:30;;;;;;;7.80;2.38;;;13.90;99.90;;;;;;4986710;28;99781;-74
2022/10/11 08:15:57;;;;;;;6.78;2.78;;;13.80;99.90;;;;;;4955834;28;98517;-73
2022/10/11 08:18:25;;;;;;;8.43;2.72;;;13.80;99.90;;;;;;4955516;28;99468;-74
2022/10/11 08:20:52;;;;;;;5.97;2.35;;;13.70;99.90;;;;;;4955491;28;99443;-74
2022/10/11 08:23:19;;;;;;;10.18;2.80;;;13.60;99.90;;;;;;4986468;28;99378;-74
2022/10/11 08:25:47;;;;;;;10.13;2.60;;;13.60;99.90;;;;;;4954215;28;98659;-73
2022/10/11 08:28:17;;;;;;;6.03;1.83;;;13.50;99.90;;;;;;4987209;28;98235;-74
2022/10/11 08:30:53;;;;;;;9.20;2.35;;;13.40;99.90;;;;;;4954989;28;99490;-74
2022/10/11 08:33:21;;;;;;;12.18;2.53;;;13.40;99.90;;;;;;4955076;28;99048;-73
2022/10/11 08:35:50;;;;;;;7.43;2.28;;;13.30;99.90;;;;;;4955219;28;99311;-73
2022/10/11 08:38:18;;;;;;;8.68;2.30;;;13.20;99.90;;;;;;4969832;28;99054;-74
2022/10/11 08:40:52;;;;;;;9.73;2.72;;;13.20;99.90;;;;;;4954823;28;109830;-74
2022/10/11 08:43:24;;;;;;;;;;;13.10;99.90;;;;;;4955566;28;99035;-73
2022/10/11 08:45:54;;;;;;;10.65;3.60;;;13.00;99.90;;;;;;4956743;28;98504;-73
2022/10/11 08:48:31;;;;;;;9.43;2.55;;;13.00;99.90;;;;;;4955025;28;98520;-74
2022/10/11 08:50:58;;;;;;;8.60;2.75;;;13.10;99.90;;;;;;4986273;28;101747;-73
2022/10/11 08:53:53;;;;;;;7.13;2.78;;;13.10;99.90;;;;;;4953591;28;102420;-73
2022/10/11 08:56:22;;;;;;;12.20;2.42;;;13.20;99.90;;;;;;4955089;28;98926;-73
2022/10/11 08:58:59;;;;;;;9.00;2.97;;;13.20;99.90;;;;;;4954792;28;98515;-73
2022/10/11 09:01:28;;;;;;;8.50;2.50;;;13.30;99.90;;;;;;4985729;28;99993;-73
2022/10/11 09:03:58;;;;;;;8.20;2.47;;;13.40;99.90;;;;;;4954734;28;99837;-73
2022/10/11 09:06:31;;;;;;;8.25;1.95;;;13.50;99.90;;;;;;4954857;28;99095;-73
2022/10/11 09:09:16;;;;;;;9.73;2.25;;;13.60;99.90;;;;;;4954049;28;98539;-73
2022/10/11 09:11:46;;;;;;;10.30;3.30;;;13.60;99.90;;;;;;4952978;28;100339;-73
2022/10/11 09:14:27;;;;;;;8.07;2.47;;;13.60;99.90;;;;;;4953078;28;99151;-74
2022/10/11 09:17:15;;;;;;;6.45;1.80;;;13.80;99.90;;;;;;4955196;28;98633;-73
2022/10/11 09:19:50;;;;;;;5.15;2.25;;;13.80;99.90;;;;;;4969760;28;97892;-73
2022/10/11 09:22:23;;;;;;;6.03;2.10;;;13.80;99.90;;;;;;4954430;28;99424;-74
2022/10/11 09:25:32;;;;;;;6.70;2.20;;;13.90;99.90;;;;;;4954482;28;99086;-74
2022/10/11 09:28:27;;;;;;;10.63;2.45;;;14.00;99.90;;;;;;4953277;28;99365;-74
2022/10/11 09:30:57;;;;;;;11.20;2.67;;;14.10;99.90;;;;;;4952789;28;98640;-73
2022/10/11 09:33:42;;;;;;;8.35;2.35;;;14.10;99.90;;;;;;4954067;28;99311;-73
2022/10/11 09:36:32;;;;;;;15.38;2.45;;;14.40;99.90;;;;;;4953234;28;99242;-74
2022/10/11 09:39:26;;;;;;;6.20;1.63;;;14.40;99.90;;;;;;4954652;28;98462;-73
2022/10/11 09:42:04;;;;;;;9.88;2.53;;;14.50;99.90;;;;;;4953165;28;98697;-73
2022/10/11 09:44:44;;;;;;;11.93;2.33;;;14.60;99.90;;;;;;4952704;28;101753;-74
2022/10/11 09:47:16;;;;;;;11.85;3.03;;;14.70;99.90;;;;;;4954447;28;99228;-74
2022/10/11 09:50:12;;;;;;;8.27;2.20;;;14.70;99.90;;;;;;4954563;28;98435;-73
2022/10/11 09:52:48;;;;;;;8.48;2.10;;;14.90;99.90;;;;;;4952684;28;98469;-73
2022/10/11 09:55:33;;;;;;;7.85;1.90;;;14.90;99.90;;;;;;4953736;28;99975;-73
2022/10/11 09:58:02;;;;;;;5.68;1.83;;;15.10;99.90;;;;;;4953875;28;99811;-74
2022/10/11 10:00:33;;;;;;;9.02;2.30;;;15.10;99.90;;;;;;4985688;28;98907;-74
2022/10/11 10:03:03;;;;;;;9.88;1.92;;;15.20;99.90;;;;;;4953076;28;98684;-73
2022/10/11 10:05:35;;;;;;;8.32;2.08;;;15.20;99.90;;;;;;4953325;28;99347;-73
2022/10/11 10:08:19;;;;;;;9.27;2.03;;;15.30;99.90;;;;;;4953870;28;99259;-74
2022/10/11 10:11:06;;;;;;;9.27;2.17;;;15.40;99.90;;;;;;4953705;28;98567;-74
2022/10/11 10:13:36;;;;;;;7.03;2.05;;;15.40;99.90;;;;;;4954277;28;97774;-74
2022/10/11 10:16:04;;;;;;;11.88;2.53;;;15.50;99.90;;;;;;4953460;28;99392;-73
2022/10/11 10:18:46;;;;;;;10.45;2.38;;;15.60;99.90;;;;;;4967972;28;101713;-73
2022/10/11 10:21:14;;;;;;;12.52;2.75;;;15.70;99.90;;;;;;4953936;28;99834;-74
2022/10/11 10:23:42;;;;;;;8.52;2.08;;;15.80;99.90;;;;;;4953571;28;98578;-74
2022/10/11 10:26:16;;;;;;;7.20;2.00;;;15.80;99.90;;;;;;4953424;28;99371;-74
2022/10/11 10:29:18;;;;;;;14.20;2.65;;;15.90;99.90;;;;;;4951954;28;101631;-74
2022/10/11 10:31:55;;;;;;;8.40;1.83;;;16.00;99.90;;;;;;4953109;28;98663;-74
2022/10/11 10:35:05;;;;;;;11.40;2.65;;;16.10;99.90;;;;;;4979748;28;99059;-74
2022/10/11 10:37:40;;;;;;;7.68;2.55;;;16.10;99.90;;;;;;4951779;28;101756;-74
2022/10/11 10:40:50;;;;;;;11.55;2.95;;;16.10;99.90;;;;;;4953859;28;98979;-74
2022/10/11 10:43:20;;;;;;;11.02;2.60;;;16.20;99.90;;;;;;4952467;28;98538;-74
2022/10/11 10:46:06;;;;;;;18.05;3.85;;;16.20;99.90;;;;;;4968055;28;98521;-74
2022/10/11 10:48:43;;;;;;;6.57;2.22;;;16.30;99.90;;;;;;4951033;28;103735;-74
2022/10/11 10:51:53;;;;;;;12.00;3.75;;;16.30;99.90;;;;;;4952917;28;99687;-74
2022/10/11 10:54:53;;;;;;;6.70;2.20;;;16.40;99.90;;;;;;4953521;28;98587;-74
2022/10/11 10:57:58;;;;;;;11.48;2.33;;;16.50;99.90;;;;;;4953465;28;98594;-74
2022/10/11 11:00:28;;;;;;;;;;;16.60;99.90;;;;;;4953340;28;103747;-74
2022/10/11 11:03:11;;;;;;;7.43;2.58;;;16.60;99.90;;;;;;4985588;28;98647;-74
2022/10/11 11:05:54;;;;;;;12.45;3.53;;;16.70;99.90;;;;;;4968198;28;98650;-74
2022/10/11 11:08:36;;;;;;;11.18;2.63;;;16.80;99.80;;;;;;4952596;28;97847;-74
2022/10/11 11:11:28;;;;;;;11.35;2.65;;;16.90;99.80;;;;;;4951396;28;105554;-74
2022/10/11 11:14:12;;;;;;;9.77;2.70;;;17.00;99.50;;;;;;4952944;28;99306;-74
2022/10/11 11:16:55;;;;;;;;;;;17.10;99.50;;;;;;4984699;28;99528;-74
2022/10/11 11:19:50;;;;;;;8.38;2.13;;;17.00;99.30;;;;;;4952809;28;98575;-74
2022/10/11 11:22:25;;;;;;;7.20;1.75;;;17.10;99.60;;;;;;4954912;28;102028;-74
2022/10/11 11:25:16;;;;;;;11.00;2.28;;;17.20;99.20;;;;;;4956093;28;99102;-74
2022/10/11 11:27:52;;;;;;;11.60;2.58;;;17.20;98.70;;;;;;4956592;28;98691;-74
2022/10/11 11:30:26;;;;;;;9.40;2.08;;;17.40;98.80;;;;;;4956440;28;99093;-74
2022/10/11 11:33:10;;;;;;;10.30;2.55;;;17.50;98.70;;;;;;4987381;28;99510;-74
2022/10/11 11:35:42;;;;;;;6.38;2.55;;;17.50;98.50;;;;;;4954871;28;101885;-74
2022/10/11 11:38:41;;;;;;;9.05;2.60;;;17.50;97.80;;;;;;4956683;28;98527;-74
2022/10/11 11:41:26;;;;;;;11.88;2.42;;;17.70;97.50;;;;;;4955341;28;98508;-74
2022/10/11 11:44:09;;;;;;;8.27;2.45;;;17.80;97.70;;;;;;4953586;28;103697;-74
2022/10/11 11:47:10;;;;;;;9.95;2.88;;;17.90;97.90;;;;;;4987092;28;102618;-74
2022/10/11 11:49:43;;;;;;;9.13;1.95;;;18.00;97.10;;;;;;4954779;28;98595;-74
2022/10/11 11:52:24;;;;;;;9.32;2.08;;;17.90;97.00;;;;;;4987594;28;98504;-74
2022/10/11 11:55:01;;;;;;;10.82;2.67;;;17.90;96.80;;;;;;4955782;28;99434;-74
2022/10/11 11:57:32;;;;;;;10.50;2.97;;;17.70;96.90;;;;;;4954454;28;101572;-74
2022/10/11 12:00:17;;;;;;;11.52;2.53;;;17.60;96.90;;;;;;4954514;28;98704;-74
2022/10/11 12:02:51;;;;;;;9.60;2.15;;;17.70;96.80;;;;;;4956311;28;98349;-74
2022/10/11 12:05:22;;;;;;;10.07;1.80;;;17.60;96.90;;;;;;4955799;28;99310;-74
2022/10/11 12:07:53;;;;;;;6.68;2.40;;;17.70;96.80;;;;;;4954178;28;98973;-74
2022/10/11 12:10:32;;;;;;;10.02;2.55;;;17.70;96.10;;;;;;4954591;28;99330;-74
2022/10/11 12:13:08;;;;;;;11.23;1.85;;;17.70;95.40;;;;;;4937754;28;98559;-74
2022/10/11 12:15:35;;;;;;;8.65;2.50;;;17.70;95.60;;;;;;4954160;28;101822;-74
2022/10/11 12:18:13;;;;;;;9.48;2.60;;;17.70;95.60;;;;;;4955519;28;99094;-74
2022/10/11 12:20:41;;;;;;;8.55;1.83;;;17.70;95.60;;;;;;4955792;28;98629;-74
2022/10/11 12:23:27;;;;;;;10.07;2.38;;;17.60;95.80;;;;;;4987245;28;98784;-74
2022/10/11 12:26:28;;;;;;;5.68;1.85;;;17.60;95.40;;;;;;4955212;28;99336;-74
2022/10/11 12:29:20;;;;;;;8.32;2.47;;;17.50;95.90;;;;;;4953973;28;104810;-74
2022/10/11 12:31:57;;;;;;;7.07;2.15;;;17.50;96.00;;;;;;4954171;28;98653;-74
2022/10/11 12:34:42;;;;;;;5.63;1.70;;;17.60;95.90;;;;;;4955835;28;98516;-74
2022/10/11 12:37:18;;;;;;;6.40;1.80;;;17.70;95.30;;;;;;4986257;28;100167;-74
2022/10/11 12:39:48;;;;;;;8.80;2.33;;;17.80;95.30;;;;;;4955066;28;102236;-74
2022/10/11 12:42:35;;;;;;;11.05;2.50;;;17.90;95.50;;;;;;4954210;28;98638;-74
2022/10/11 12:45:11;;;;;;;9.07;2.40;;;18.10;94.60;;;;;;4986726;28;98573;-74
2022/10/11 12:47:48;;;;;;;8.68;2.65;;;18.20;94.80;;;;;;4953733;28;100322;-74
2022/10/11 12:50:18;;;;;;;9.07;2.58;;;18.20;94.80;;;;;;4955074;28;99006;-74
2022/10/11 12:53:00;;;;;;;9.90;2.45;;;18.30;95.00;;;;;;4953728;28;99336;-74
2022/10/11 12:56:01;;;;;;;6.65;1.67;;;18.50;94.50;;;;;;4954445;28;97759;-74
2022/10/11 12:58:45;;;;;;;6.18;2.45;;;18.60;94.30;;;;;;4955093;28;99390;-74
2022/10/11 13:01:18;;;;;;;7.22;2.08;;;18.60;94.10;;;;;;4954565;28;99041;-74
2022/10/11 13:04:03;;;;;;;6.47;2.10;;;18.90;93.50;;;;;;4953059;28;99382;-74
2022/10/11 13:06:33;;;;;;;7.30;2.05;;;19.10;93.40;;;;;;4955275;28;98516;-74
2022/10/11 13:09:03;;;;;;;5.70;2.30;;;19.30;93.10;;;;;;4953067;28;101987;-74
2022/10/11 13:11:34;;;;;;;8.68;1.80;;;19.40;92.90;;;;;;4953230;28;100200;-74
2022/10/11 13:14:07;;;;;;;7.18;2.00;;;19.60;92.90;;;;;;4955183;28;98906;-74
2022/10/11 13:16:49;;;;;;;5.95;1.98;;;19.70;92.30;;;;;;4953900;28;98535;-74
2022/10/11 13:19:20;;;;;;;7.03;2.03;;;19.90;91.90;;;;;;4952981;28;100463;-74
2022/10/11 13:21:53;;;;;;;7.63;2.25;;;19.80;91.90;;;;;;4986277;28;99105;-74
2022/10/11 13:24:22;;;;;;;9.27;2.63;;;19.90;91.70;;;;;;4953565;28;99188;-74